createdAt,value
2023-03-20T00:01:30.681Z,101649.69
2023-03-20T00:03:58.345Z,101655.84
2023-03-20T00:06:27.156Z,101657.53
2023-03-20T00:08:55.198Z,101647.34
2023-03-20T00:11:30.998Z,101647.84
2023-03-20T00:14:01.503Z,101656.66
2023-03-20T00:16:43.189Z,101655.03
2023-03-20T00:19:26.020Z,101670.41
2023-03-20T00:21:54.996Z,101663.59
2023-03-20T00:24:22.964Z,101664.66
2023-03-20T00:26:51.177Z,101669.00
2023-03-20T00:29:36.751Z,101659.13
2023-03-20T00:32:04.074Z,101663.53
2023-03-20T00:34:32.205Z,101666.81
2023-03-20T00:37:00.104Z,101661.56
2023-03-20T00:39:29.805Z,101651.66
2023-03-20T00:42:06.254Z,101659.97
2023-03-20T00:44:36.925Z,101663.56
2023-03-20T00:47:06.733Z,101657.28
2023-03-20T00:49:38.660Z,101663.06
2023-03-20T00:52:09.819Z,101657.00
2023-03-20T00:54:37.065Z,101649.59
2023-03-20T00:57:14.495Z,101656.72
2023-03-20T00:59:58.490Z,101655.66
2023-03-20T01:02:28.969Z,101657.84
2023-03-20T01:04:57.485Z,101661.41
2023-03-20T01:07:27.648Z,101658.38
2023-03-20T01:09:55.664Z,101660.56
2023-03-20T01:12:23.889Z,101663.28
2023-03-20T01:14:56.559Z,101663.00
2023-03-20T01:17:25.294Z,101654.78
2023-03-20T01:19:52.644Z,101662.53
2023-03-20T01:22:20.025Z,101661.13
2023-03-20T01:24:48.396Z,101667.16
2023-03-20T01:27:18.568Z,101667.16
2023-03-20T01:29:46.844Z,101665.78
2023-03-20T01:32:17.925Z,101670.19
2023-03-20T01:34:48.679Z,101672.09
2023-03-20T01:37:23.286Z,101668.53
2023-03-20T01:39:51.687Z,101674.31
2023-03-20T01:42:19.347Z,101678.69
2023-03-20T01:44:46.866Z,101669.63
2023-03-20T01:47:21.125Z,101667.19
2023-03-20T01:50:22.843Z,101662.25
2023-03-20T01:53:07.679Z,101659.78
2023-03-20T01:55:40.917Z,101664.16
2023-03-20T01:58:15.341Z,101652.88
2023-03-20T02:00:42.767Z,101659.22
2023-03-20T02:03:14.241Z,101646.88
2023-03-20T02:06:16.936Z,101645.22
2023-03-20T02:08:59.134Z,101648.22
2023-03-20T02:11:29.243Z,101648.47
2023-03-20T02:13:58.935Z,101647.94
2023-03-20T02:16:29.570Z,101643.53
2023-03-20T02:19:11.359Z,101638.88
2023-03-20T02:22:21.961Z,101645.50
2023-03-20T02:25:15.928Z,101629.00
2023-03-20T02:28:21.156Z,101633.41
2023-03-20T02:31:14.734Z,101637.81
2023-03-20T02:34:02.440Z,101632.03
2023-03-20T02:36:54.226Z,101633.69
2023-03-20T02:39:26.724Z,101643.84
2023-03-20T02:42:00.191Z,101637.78
2023-03-20T02:44:39.468Z,101641.91
2023-03-20T02:47:14.720Z,101640.50
2023-03-20T02:49:52.898Z,101635.84
2023-03-20T02:52:51.782Z,101639.44
2023-03-20T02:55:33.921Z,101639.16
2023-03-20T02:58:09.309Z,101636.66
2023-03-20T03:00:48.574Z,101630.94
2023-03-20T03:03:34.352Z,101634.22
2023-03-20T03:06:09.073Z,101628.75
2023-03-20T03:08:41.359Z,101629.03
2023-03-20T03:11:09.811Z,101623.53
2023-03-20T03:13:42.146Z,101626.28
2023-03-20T03:16:14.530Z,101630.66
2023-03-20T03:18:42.949Z,101631.72
2023-03-20T03:21:14.125Z,101637.22
2023-03-20T03:23:49.138Z,101638.06
2023-03-20T03:26:28.293Z,101640.53
2023-03-20T03:29:02.679Z,101644.13
2023-03-20T03:31:30.923Z,101635.06
2023-03-20T03:33:59.784Z,101627.09
2023-03-20T03:36:39.903Z,101633.16
2023-03-20T03:39:19.487Z,101636.97
2023-03-20T03:41:56.542Z,101632.31
2023-03-20T03:44:47.071Z,101627.66
2023-03-20T03:47:33.433Z,101620.78
2023-03-20T03:50:05.663Z,101617.47
2023-03-20T03:52:33.489Z,101616.09
2023-03-20T03:55:03.947Z,101616.94
2023-03-20T03:57:44.635Z,101607.06
2023-03-20T04:00:18.144Z,101607.91
2023-03-20T04:02:47.493Z,101611.44
2023-03-20T04:05:16.192Z,101609.53
2023-03-20T04:07:47.343Z,101607.91
2023-03-20T04:10:15.456Z,101606.81
2023-03-20T04:12:44.388Z,101622.44
2023-03-20T04:15:12.824Z,101624.38
2023-03-20T04:17:40.297Z,101627.91
2023-03-20T04:20:09.915Z,101630.38
2023-03-20T04:22:37.312Z,101634.78
2023-03-20T04:25:16.291Z,101631.75
2023-03-20T04:27:43.600Z,101638.59
2023-03-20T04:30:18.985Z,101634.50
2023-03-20T04:33:05.191Z,101640.53
2023-03-20T04:35:44.432Z,101635.63
2023-03-20T04:38:15.940Z,101637.28
2023-03-20T04:40:44.920Z,101643.56
2023-03-20T04:43:13.149Z,101638.66
2023-03-20T04:45:41.504Z,101640.00
2023-03-20T04:48:09.965Z,101633.44
2023-03-20T04:50:37.669Z,101634.53
2023-03-20T04:53:06.660Z,101626.31
2023-03-20T04:55:34.633Z,101627.38
2023-03-20T04:58:02.046Z,101625.19
2023-03-20T05:00:30.205Z,101624.63
2023-03-20T05:02:57.430Z,101621.88
2023-03-20T05:05:25.698Z,101626.25
2023-03-20T05:07:53.674Z,101614.47
2023-03-20T05:10:30.696Z,101615.81
2023-03-20T05:13:06.252Z,101626.50
2023-03-20T05:15:54.030Z,101628.19
2023-03-20T05:18:46.540Z,101627.63
2023-03-20T05:21:32.457Z,101616.94
2023-03-20T05:24:27.492Z,101625.72
2023-03-20T05:27:17.949Z,101621.63
2023-03-20T05:30:02.977Z,101623.50
2023-03-20T05:32:51.026Z,101622.94
2023-03-20T05:35:27.602Z,101623.50
2023-03-20T05:38:23.484Z,101618.53
2023-03-20T05:41:11.220Z,101611.13
2023-03-20T05:43:46.484Z,101620.16
2023-03-20T05:46:33.304Z,101617.16
2023-03-20T05:49:09.719Z,101627.84
2023-03-20T05:51:57.022Z,101629.28
2023-03-20T05:54:31.756Z,101627.88
2023-03-20T05:57:22.333Z,101630.34
2023-03-20T05:59:52.750Z,101625.59
2023-03-20T06:02:38.965Z,101631.09
2023-03-20T06:05:26.159Z,101619.28
2023-03-20T06:07:53.952Z,101635.78
2023-03-20T06:10:21.138Z,101635.22
2023-03-20T06:12:53.611Z,101635.72
2023-03-20T06:15:29.194Z,101642.09
2023-03-20T06:18:04.425Z,101640.69
2023-03-20T06:20:32.202Z,101640.94
2023-03-20T06:23:02.680Z,101642.50
2023-03-20T06:25:30.585Z,101647.28
2023-03-20T06:27:58.294Z,101649.78
2023-03-20T06:30:25.727Z,101635.16
2023-03-20T06:32:54.432Z,101639.50
2023-03-20T06:35:24.393Z,101630.75
2023-03-20T06:37:51.908Z,101638.25
2023-03-20T06:40:23.549Z,101637.88
2023-03-20T06:42:51.208Z,101639.81
2023-03-20T06:45:19.640Z,101621.59
2023-03-20T06:48:02.314Z,101622.91
2023-03-20T06:50:30.766Z,101619.69
2023-03-20T06:52:59.626Z,101628.78
2023-03-20T06:55:32.899Z,101624.41
2023-03-20T06:58:00.769Z,101624.66
2023-03-20T07:00:29.773Z,101625.97
2023-03-20T07:02:59.424Z,101625.69
2023-03-20T07:05:28.647Z,101633.81
2023-03-20T07:07:57.189Z,101636.91
2023-03-20T07:10:24.628Z,101625.84
2023-03-20T07:12:53.587Z,101634.31
2023-03-20T07:15:21.221Z,101632.09
2023-03-20T07:17:49.633Z,101639.69
2023-03-20T07:20:17.186Z,101643.88
2023-03-20T07:22:44.547Z,101646.31
2023-03-20T07:25:20.562Z,101638.03
2023-03-20T07:27:54.740Z,101638.09
2023-03-20T07:30:24.594Z,101641.34
2023-03-20T07:32:52.564Z,101646.75
2023-03-20T07:35:21.175Z,101634.25
2023-03-20T07:37:48.589Z,101635.78
2023-03-20T07:40:16.217Z,101631.41
2023-03-20T07:42:52.807Z,101641.41
2023-03-20T07:45:39.033Z,101637.88
2023-03-20T07:48:06.852Z,101636.13
2023-03-20T07:50:34.270Z,101647.63
2023-03-20T07:53:02.280Z,101646.50
2023-03-20T07:55:29.537Z,101641.44
2023-03-20T07:57:56.822Z,101642.81
2023-03-20T08:00:26.104Z,101633.13
2023-03-20T08:02:57.058Z,101642.81
2023-03-20T08:05:25.035Z,101623.59
2023-03-20T08:07:52.934Z,101629.88
2023-03-20T08:10:20.502Z,101628.16
2023-03-20T08:12:47.734Z,101632.22
2023-03-20T08:15:15.298Z,101635.63
2023-03-20T08:17:44.629Z,101638.06
2023-03-20T08:20:14.465Z,101646.88
2023-03-20T08:22:42.814Z,101643.19
2023-03-20T08:25:10.824Z,101652.63
2023-03-20T08:27:38.804Z,101658.13
2023-03-20T08:30:07.149Z,101661.22
2023-03-20T08:32:34.514Z,101663.06
2023-03-20T08:35:01.848Z,101667.13
2023-03-20T08:37:29.224Z,101674.31
2023-03-20T08:39:56.455Z,101675.25
2023-03-20T08:42:23.972Z,101670.75
2023-03-20T08:44:51.346Z,101681.94
2023-03-20T08:47:19.724Z,101680.44
2023-03-20T08:49:47.228Z,101681.94
2023-03-20T08:52:14.735Z,101682.38
2023-03-20T08:54:42.417Z,101678.13
2023-03-20T08:57:10.364Z,101684.00
2023-03-20T08:59:38.011Z,101670.97
2023-03-20T09:02:05.958Z,101673.81
2023-03-20T09:04:33.451Z,101668.50
2023-03-20T09:07:03.074Z,101667.59
2023-03-20T09:09:30.943Z,101670.22
2023-03-20T09:11:59.356Z,101664.97
2023-03-20T09:14:28.670Z,101661.34
2023-03-20T09:16:56.371Z,101660.00
2023-03-20T09:19:23.741Z,101644.81
2023-03-20T09:21:51.224Z,101642.22
2023-03-20T09:24:18.616Z,101633.63
2023-03-20T09:26:45.952Z,101633.03
2023-03-20T09:29:13.353Z,101629.56
2023-03-20T09:31:41.153Z,101634.06
2023-03-20T09:34:08.838Z,101626.13
2023-03-20T09:36:36.584Z,101624.88
2023-03-20T09:39:04.749Z,101625.25
2023-03-20T09:41:49.247Z,101618.69
2023-03-20T09:45:13.544Z,101631.75
2023-03-20T09:47:54.768Z,101637.03
2023-03-20T09:50:38.715Z,101640.25
2023-03-20T09:53:24.939Z,101647.81
2023-03-20T09:55:53.906Z,101651.00
2023-03-20T09:58:25.775Z,101645.38
2023-03-20T10:00:56.196Z,101645.69
2023-03-20T10:03:30.004Z,101651.09
2023-03-20T10:06:03.585Z,101649.66
2023-03-20T10:08:36.931Z,101649.03
2023-03-20T10:11:10.237Z,101644.22
2023-03-20T10:13:37.409Z,101644.75
2023-03-20T10:16:12.724Z,101645.66
2023-03-20T10:18:47.104Z,101641.03
2023-03-20T10:21:24.178Z,101632.06
2023-03-20T10:24:04.643Z,101631.75
2023-03-20T10:26:36.246Z,101626.38
2023-03-20T10:29:26.203Z,101629.28
2023-03-20T10:32:02.826Z,101622.63
2023-03-20T10:34:52.225Z,101618.69
2023-03-20T10:37:32.686Z,101620.75
2023-03-20T10:40:05.774Z,101613.59
2023-03-20T10:42:39.619Z,101616.22
2023-03-20T10:45:14.883Z,101621.06
2023-03-20T10:47:48.536Z,101620.03
2023-03-20T10:50:19.041Z,101622.59
2023-03-20T10:52:48.605Z,101610.66
2023-03-20T10:55:22.725Z,101614.75
2023-03-20T10:57:56.685Z,101613.53
2023-03-20T11:00:26.374Z,101609.53
2023-03-20T11:02:53.681Z,101595.34
2023-03-20T11:05:21.062Z,101597.59
2023-03-20T11:07:52.844Z,101597.50
2023-03-20T11:10:20.568Z,101585.41
2023-03-20T11:12:49.209Z,101579.06
2023-03-20T11:15:21.816Z,101577.66
2023-03-20T11:18:07.291Z,101578.69
2023-03-20T11:20:39.701Z,101576.69
2023-03-20T11:23:10.754Z,101572.72
2023-03-20T11:25:40.034Z,101579.75
2023-03-20T11:28:19.677Z,101571.63
2023-03-20T11:31:03.849Z,101569.06
2023-03-20T11:33:40.338Z,101580.34
2023-03-20T11:36:30.299Z,101573.41
2023-03-20T11:39:27.932Z,101568.16
2023-03-20T11:41:57.024Z,101563.53
2023-03-20T11:44:26.741Z,101572.22
2023-03-20T11:47:05.700Z,101572.00
2023-03-20T11:49:34.974Z,101572.50
2023-03-20T11:52:11.443Z,101570.19
2023-03-20T11:54:46.604Z,101566.59
2023-03-20T11:57:46.206Z,101561.25
2023-03-20T12:00:21.489Z,101571.53
2023-03-20T12:02:48.982Z,101574.56
2023-03-20T12:05:33.133Z,101565.91
2023-03-20T12:08:14.142Z,101557.91
2023-03-20T12:10:43.697Z,101559.19
2023-03-20T12:13:21.635Z,101556.34
2023-03-20T12:15:55.820Z,101549.69
2023-03-20T12:18:26.969Z,101545.09
2023-03-20T12:21:10.294Z,101550.97
2023-03-20T12:23:48.209Z,101539.91
2023-03-20T12:26:20.504Z,101543.81
2023-03-20T12:28:52.540Z,101545.91
2023-03-20T12:31:34.277Z,101542.47
2023-03-20T12:34:16.480Z,101539.66
2023-03-20T12:36:52.954Z,101532.59
2023-03-20T12:39:25.327Z,101532.28
2023-03-20T12:42:02.317Z,101517.44
2023-03-20T12:44:43.469Z,101511.91
2023-03-20T12:47:33.284Z,101511.59
2023-03-20T12:50:25.489Z,101521.34
2023-03-20T12:53:11.749Z,101510.47
2023-03-20T12:55:54.866Z,101515.78
2023-03-20T12:58:36.634Z,101512.88
2023-03-20T13:01:07.372Z,101515.84
2023-03-20T13:04:12.549Z,101523.81
2023-03-20T13:06:51.994Z,101503.38
2023-03-20T13:09:57.300Z,101515.06
2023-03-20T13:12:45.964Z,101508.84
2023-03-20T13:15:23.919Z,101518.13
2023-03-20T13:17:51.786Z,101518.97
2023-03-20T13:20:27.014Z,101503.94
2023-03-20T13:22:59.264Z,101507.41
2023-03-20T13:25:35.848Z,101506.91
2023-03-20T13:28:13.569Z,101497.88
2023-03-20T13:30:50.339Z,101494.47
2023-03-20T13:33:38.753Z,101496.25
2023-03-20T13:36:19.140Z,101491.13
2023-03-20T13:38:50.283Z,101489.13
2023-03-20T13:41:17.697Z,101483.53
2023-03-20T13:43:54.222Z,101480.34
2023-03-20T13:46:27.961Z,101480.63
2023-03-20T13:48:59.145Z,101477.34
2023-03-20T13:51:34.438Z,101475.38
2023-03-20T13:54:01.808Z,101467.34
2023-03-20T13:56:44.797Z,101472.69
2023-03-20T13:59:33.621Z,101451.19
2023-03-20T14:02:18.839Z,101465.94
2023-03-20T14:04:47.665Z,101451.22
2023-03-20T14:07:33.957Z,101452.84
2023-03-20T14:10:37.420Z,101456.00
2023-03-20T14:13:10.136Z,101448.34
2023-03-20T14:15:39.111Z,101452.78
2023-03-20T14:18:13.441Z,101436.19
2023-03-20T14:20:42.595Z,101432.78
2023-03-20T14:23:30.066Z,101432.91
2023-03-20T14:25:59.280Z,101434.38
2023-03-20T14:28:31.549Z,101437.22
2023-03-20T14:31:26.430Z,101438.56
2023-03-20T14:34:12.184Z,101430.44
2023-03-20T14:36:53.086Z,101428.41
2023-03-20T14:39:44.530Z,101426.81
2023-03-20T14:42:36.127Z,101419.22
2023-03-20T14:45:42.457Z,101418.41
2023-03-20T14:48:32.671Z,101418.66
2023-03-20T14:51:11.856Z,101419.00
2023-03-20T14:53:40.813Z,101416.66
2023-03-20T14:56:13.647Z,101416.22
2023-03-20T14:58:43.707Z,101421.00
2023-03-20T15:01:26.153Z,101414.91
2023-03-20T15:04:11.131Z,101409.19
2023-03-20T15:06:49.985Z,101417.06
2023-03-20T15:09:18.127Z,101411.72
2023-03-20T15:11:46.640Z,101402.19
2023-03-20T15:14:20.580Z,101398.06
2023-03-20T15:16:47.967Z,101398.34
2023-03-20T15:19:18.567Z,101395.03
2023-03-20T15:21:48.031Z,101400.53
2023-03-20T15:24:27.202Z,101398.06
2023-03-20T15:26:57.986Z,101397.88
2023-03-20T15:29:25.795Z,101394.28
2023-03-20T15:32:12.476Z,101384.09
2023-03-20T15:34:42.500Z,101380.91
2023-03-20T15:37:15.359Z,101389.03
2023-03-20T15:39:48.536Z,101382.97
2023-03-20T15:42:18.315Z,101393.06
2023-03-20T15:44:48.304Z,101382.09
2023-03-20T15:47:21.316Z,101375.50
2023-03-20T15:49:54.828Z,101367.84
2023-03-20T15:52:42.633Z,101359.19
2023-03-20T15:55:14.760Z,101362.44
2023-03-20T15:57:44.952Z,101363.22
2023-03-20T16:00:16.902Z,101353.47
2023-03-20T16:02:48.277Z,101353.97
2023-03-20T16:05:16.587Z,101351.28
2023-03-20T16:07:44.184Z,101360.69
2023-03-20T16:10:34.315Z,101358.53
2023-03-20T16:13:01.585Z,101353.09
2023-03-20T16:15:31.655Z,101361.56
2023-03-20T16:18:01.952Z,101356.34
2023-03-20T16:20:35.486Z,101336.41
2023-03-20T16:23:08.561Z,101335.22
2023-03-20T16:25:36.983Z,101327.56
2023-03-20T16:28:07.415Z,101330.09
2023-03-20T16:30:35.632Z,101332.59
2023-03-20T16:33:12.943Z,101324.84
2023-03-20T16:35:44.171Z,101325.25
2023-03-20T16:38:26.012Z,101326.81
2023-03-20T16:40:59.897Z,101318.25
2023-03-20T16:43:30.945Z,101320.78
2023-03-20T16:46:05.696Z,101324.63
2023-03-20T16:48:37.493Z,101329.75
2023-03-20T16:51:26.377Z,101327.16
2023-03-20T16:53:59.172Z,101329.22
2023-03-20T16:56:29.771Z,101322.75
2023-03-20T16:58:57.397Z,101321.69
2023-03-20T17:01:27.646Z,101321.59
2023-03-20T17:04:11.915Z,101319.97
2023-03-20T17:06:44.736Z,101320.22
2023-03-20T17:09:25.850Z,101320.03
2023-03-20T17:12:05.984Z,101318.47
2023-03-20T17:14:34.381Z,101312.63
2023-03-20T17:17:02.301Z,101302.19
2023-03-20T17:19:32.407Z,101307.84
2023-03-20T17:22:03.515Z,101311.16
2023-03-20T17:24:31.034Z,101307.47
2023-03-20T17:26:58.891Z,101302.69
2023-03-20T17:29:27.117Z,101312.25
2023-03-20T17:31:54.709Z,101308.91
2023-03-20T17:34:22.468Z,101307.47
2023-03-20T17:36:50.814Z,101314.97
2023-03-20T17:39:19.818Z,101309.81
2023-03-20T17:41:47.792Z,101323.38
2023-03-20T17:44:16.224Z,101310.38
2023-03-20T17:46:57.181Z,101316.03
2023-03-20T17:49:27.530Z,101306.63
2023-03-20T17:51:55.582Z,101313.56
2023-03-20T17:54:22.859Z,101320.31
2023-03-20T17:56:50.523Z,101323.13
2023-03-20T17:59:18.420Z,101326.44
2023-03-20T18:01:45.870Z,101325.84
2023-03-20T18:04:13.212Z,101332.41
2023-03-20T18:06:40.599Z,101332.50
2023-03-20T18:09:12.664Z,101331.13
2023-03-20T18:11:41.907Z,101334.69
2023-03-20T18:14:09.238Z,101326.88
2023-03-20T18:16:36.581Z,101334.22
2023-03-20T18:19:03.835Z,101335.13
2023-03-20T18:21:31.203Z,101334.63
2023-03-20T18:23:58.438Z,101337.56
2023-03-20T18:26:27.466Z,101325.75
2023-03-20T18:28:55.623Z,101330.78
2023-03-20T18:31:23.335Z,101333.59
2023-03-20T18:33:52.883Z,101333.13
2023-03-20T18:36:22.273Z,101335.13
2023-03-20T18:38:50.731Z,101337.72
2023-03-20T18:41:17.992Z,101338.66
2023-03-20T18:43:46.654Z,101344.72
2023-03-20T18:46:21.032Z,101335.59
2023-03-20T18:48:49.703Z,101341.94
2023-03-20T18:51:17.011Z,101345.06
2023-03-20T18:53:44.558Z,101346.03
2023-03-20T18:56:19.248Z,101343.91
2023-03-20T18:58:47.498Z,101342.44
2023-03-20T19:01:15.968Z,101351.91
2023-03-20T19:03:44.689Z,101347.03
2023-03-20T19:06:14.807Z,101344.25
2023-03-20T19:08:42.516Z,101352.13
2023-03-20T19:11:15.419Z,101351.94
2023-03-20T19:13:51.115Z,101338.88
2023-03-20T19:16:26.251Z,101343.13
2023-03-20T19:18:55.467Z,101333.00
2023-03-20T19:21:26.329Z,101332.81
2023-03-20T19:23:55.314Z,101337.88
2023-03-20T19:26:27.156Z,101330.84
2023-03-20T19:28:56.180Z,101333.47
2023-03-20T19:31:24.852Z,101330.88
2023-03-20T19:33:52.456Z,101331.56
2023-03-20T19:36:26.877Z,101330.03
2023-03-20T19:38:55.106Z,101334.59
2023-03-20T19:41:22.425Z,101330.19
2023-03-20T19:43:55.579Z,101328.34
2023-03-20T19:46:39.733Z,101320.56
2023-03-20T19:49:17.961Z,101331.56
2023-03-20T19:51:46.184Z,101329.22
2023-03-20T19:54:13.509Z,101329.72
2023-03-20T19:56:40.845Z,101328.09
2023-03-20T19:59:08.440Z,101327.78
2023-03-20T20:01:36.514Z,101327.47
2023-03-20T20:04:04.126Z,101324.19
2023-03-20T20:06:33.004Z,101322.34
2023-03-20T20:09:01.559Z,101321.41
2023-03-20T20:11:29.338Z,101320.13
2023-03-20T20:14:06.732Z,101318.50
2023-03-20T20:20:14.229Z,101324.06
2023-03-20T20:22:41.945Z,101323.75
2023-03-20T20:25:11.146Z,101318.19
2023-03-20T20:27:39.090Z,101322.09
2023-03-20T20:30:10.383Z,101322.91
2023-03-20T20:32:38.774Z,101322.28
2023-03-20T20:35:38.815Z,101316.56
2023-03-20T20:40:43.844Z,101315.72
2023-03-20T20:43:11.498Z,101314.75
2023-03-20T20:45:39.126Z,101307.59
2023-03-20T20:48:07.322Z,101308.88
2023-03-20T20:50:39.143Z,101300.88
2023-03-20T20:53:08.187Z,101310.03
2023-03-20T20:55:35.551Z,101307.91
2023-03-20T20:58:04.058Z,101304.84
2023-03-20T21:00:45.768Z,101308.88
2023-03-20T21:03:16.274Z,101298.28
2023-03-20T21:05:43.613Z,101299.13
2023-03-20T21:08:12.047Z,101295.03
2023-03-20T21:10:40.061Z,101291.44
2023-03-20T21:13:08.393Z,101286.22
2023-03-20T21:15:36.546Z,101286.88
2023-03-20T21:18:04.129Z,101288.34
2023-03-20T21:20:32.143Z,101289.97
2023-03-20T21:23:00.479Z,101288.19
2023-03-20T21:25:47.101Z,101276.28
2023-03-20T21:28:15.226Z,101288.00
2023-03-20T21:31:16.202Z,101284.84
2023-03-20T21:33:35.765Z,101278.88
2023-03-20T21:36:04.222Z,101278.06
2023-03-20T21:39:06.847Z,101284.84
2023-03-20T21:41:19.876Z,101269.59
2023-03-20T21:43:47.626Z,101274.31
2023-03-20T21:46:46.749Z,101272.97
2023-03-20T21:55:12.951Z,101276.75
2023-03-20T22:01:03.218Z,101260.59
2023-03-20T22:03:09.935Z,101266.81
2023-03-20T22:09:19.769Z,101253.59
2023-03-20T22:23:18.316Z,101254.03
2023-03-20T22:42:35.306Z,101239.53
2023-03-20T22:45:02.862Z,101246.84
2023-03-20T22:47:31.336Z,101242.91
2023-03-20T22:49:58.939Z,101245.34
2023-03-20T22:52:37.902Z,101236.63
2023-03-20T22:55:09.823Z,101235.47
2023-03-20T22:57:45.521Z,101242.50
2023-03-20T23:00:17.640Z,101227.66
2023-03-20T23:02:45.959Z,101225.72
2023-03-20T23:05:13.864Z,101220.78
2023-03-20T23:07:41.201Z,101217.53
2023-03-20T23:10:09.921Z,101217.66
2023-03-20T23:12:38.172Z,101219.94
2023-03-20T23:15:06.558Z,101210.38
2023-03-20T23:17:33.844Z,101202.41
2023-03-20T23:20:10.785Z,101202.56
2023-03-20T23:22:38.491Z,101200.47
2023-03-20T23:25:18.292Z,101195.53
2023-03-20T23:27:51.387Z,101197.97
2023-03-20T23:30:19.855Z,101198.94
2023-03-20T23:32:48.254Z,101196.81
2023-03-20T23:35:15.565Z,101193.09
2023-03-20T23:37:42.815Z,101184.00
2023-03-20T23:40:10.761Z,101178.91
2023-03-20T23:42:38.116Z,101180.22
2023-03-20T23:45:19.155Z,101180.22
2023-03-20T23:47:48.329Z,101176.63
2023-03-20T23:50:30.079Z,101171.91
2023-03-20T23:53:13.055Z,101168.31
2023-03-20T23:55:47.073Z,101168.78
2023-03-20T23:58:14.790Z,101166.66
